메인 페이지
METAR-TAF:

METAR-TAF

공항 :

Sherbrooke, 퀘벡, 캐나다

위도: 45-24N, 경도: 071-53W, 고도: 170m

현재 날씨관측

예보는 12분 전, 03:00시(UTC)에 발표되었습니다.
7kt
온도 -10°C
습도 79%
기압 1021 hPa
시정: 14.5km
고도 1900ft 상공 구름 많음
고도 3900ft 상공 흐림

METAR: CYSC 260300Z AUTO 27007KT 9SM BKN019 OVC039 M10/M13 A3014 RMK SLP223

시각: 22:12 (03:12 UTC)

예보

예보는 3 시간 34분 전, 23:38시(UTC)에 발표되었습니다.
예보 대상 시간: 26일 00시부터 26일 03시까지 (UTC)
12kt, 순간 최대 풍속 22kt
시정: 10km
고도 4000ft 상공 흐림
약한눈
26일 0200시부터 (UTC)
8kt
시정: 10km
고도 4000ft 상공 구름 보통

TAF: CYSC 252338Z 2600/2603 27012G22KT P6SM -SN OVC040 FM260200 28008KT P6SM SCT040 RMK FCST BASED ON AUTO OBS. NXT FCST WILL BE ISSUED AT 261045Z

4,000개 이상의 공항 관측 자료 및 예보 (METAR 및 TAF 보고).

지도상에서 검색 가능한 기상관측소가 노란 점과 빨간 점으로 표시되어 있습니다.

기상관측소 명을 보려면 표시 위로 마우스를 이동하세요.

날씨 관측과 예보를 보려면 클릭하세요.

지도 변경 : 확대하려면 엑스 표시가 있는 녹색 버튼, 축소하려면 빼기 표시가 있는 녹색 버튼, 다음 페이지의 지도를 보려면 녹색 화살표를 클릭하세요.


METAR-TAF: